Impacts TAF Board
For situational awareness. Not to be used for flight planning purposes.
IDs:

KMDW - Chicago/Midway Intl, IL, US

Issued at 1503 UTC 01 Mar 2021
Updated at 1630 UTC 01 Mar 2021
Potential Impact None Slight Moderate High
Time1553Z 01/17Z 01/18Z 01/19Z 01/20Z 01/21Z 01/22Z 01/23Z 02/00Z 02/01Z 02/02Z 02/03Z 02/04Z 02/05Z>>
Type OBS PRVL PRVL PRVL PRVL PRVL PRVL PRVL PRVL PRVL PRVL PRVL PRVL PRVL
VIS 10 >6 >6 >6 >6 >6 >6 >6 >6 >6 >6 >6 >6 >6
CIG -- 100 35 -- -- -- -- -- -- -- -- -- -- --
Cover FEW BKN BKN SKC SKC SKC SKC SKC SKC SKC SKC SKC SKC SKC
FltCat VFR VFR VFR VFR VFR VFR VFR VFR VFR VFR VFR VFR VFR VFR
WX -- -- -- -- -- -- -- -- -- -- -- -- -- --
WDir 330 310 330 10 10 10 10 10 10 10 10 10 180 180
WSpd 9 13 13 9 9 9 9 9 9 9 9 9 3 3
WGst -- -- -- -- -- -- -- -- -- -- -- -- -- --
Raw TAF
KMDW 011503Z 0115/0218 31013KT P6SM BKN100
  FM011800 33013KT P6SM BKN035
  FM011900 01009KT P6SM SKC
  FM020400 18003KT P6SM SKC
  FM021500 20012G22KT P6SM SKC


Raw METAR
KMDW 011553Z 33009KT 10SM FEW100 FEW140 FEW250 M01/M09 A3020 RMK AO2 SLP238 T10061089
KMDW 011453Z 32011KT 10SM FEW100 FEW140 FEW250 M02/M08 A3019 RMK AO2 SLP233 T10171083 51027
KMDW 011353Z 30009KT 10SM FEW100 SCT140 BKN250 M03/M08 A3016 RMK AO2 SLP226 T10281083

METAR Board
Radar Display
Forecast Discussion
For situational awareness. Not to be used for flight planning purposes.